sensor_id;sensor_type;location;lat;lon;timestamp;temperature;humidity
41168;DHT22;26906;45.658;9.272;2023-05-28T05:16:58;20.00;99.90
41168;DHT22;26906;45.658;9.272;2023-05-28T05:19:24;20.10;99.90
41168;DHT22;26906;45.658;9.272;2023-05-28T05:21:51;20.30;99.90
41168;DHT22;26906;45.658;9.272;2023-05-28T05:24:17;20.20;99.90
41168;DHT22;26906;45.658;9.272;2023-05-28T05:26:43;20.20;99.90
41168;DHT22;26906;45.658;9.272;2023-05-28T05:29:09;20.30;99.90
41168;DHT22;26906;45.658;9.272;2023-05-28T05:31:35;20.30;99.90
41168;DHT22;26906;45.658;9.272;2023-05-28T05:34:01;20.40;99.90
41168;DHT22;26906;45.658;9.272;2023-05-28T05:36:47;20.50;99.90
41168;DHT22;26906;45.658;9.272;2023-05-28T05:39:21;20.80;99.90
41168;DHT22;26906;45.658;9.272;2023-05-28T05:41:58;21.20;99.90
41168;DHT22;26906;45.658;9.272;2023-05-28T05:44:29;21.60;99.90
41168;DHT22;26906;45.658;9.272;2023-05-28T05:46:54;21.80;99.90
41168;DHT22;26906;45.658;9.272;2023-05-28T05:49:20;22.00;99.90
41168;DHT22;26906;45.658;9.272;2023-05-28T05:51:46;22.00;99.90
41168;DHT22;26906;45.658;9.272;2023-05-28T05:54:12;22.20;99.90
41168;DHT22;26906;45.658;9.272;2023-05-28T05:56:38;22.20;99.90
41168;DHT22;26906;45.658;9.272;2023-05-28T05:59:04;22.20;99.90
41168;DHT22;26906;45.658;9.272;2023-05-28T06:01:31;22.20;99.90
41168;DHT22;26906;45.658;9.272;2023-05-28T06:03:57;22.20;99.90
41168;DHT22;26906;45.658;9.272;2023-05-28T06:06:48;22.40;99.90
41168;DHT22;26906;45.658;9.272;2023-05-28T06:09:23;22.50;99.90
41168;DHT22;26906;45.658;9.272;2023-05-28T06:11:52;22.50;99.90
41168;DHT22;26906;45.658;9.272;2023-05-28T06:14:18;22.60;99.90
41168;DHT22;26906;45.658;9.272;2023-05-28T06:16:44;22.70;99.90
41168;DHT22;26906;45.658;9.272;2023-05-28T06:19:11;22.80;99.90
41168;DHT22;26906;45.658;9.272;2023-05-28T06:21:37;23.00;99.90
41168;DHT22;26906;45.658;9.272;2023-05-28T06:24:03;23.20;99.90
41168;DHT22;26906;45.658;9.272;2023-05-28T06:26:29;23.40;99.90
41168;DHT22;26906;45.658;9.272;2023-05-28T06:28:55;23.60;99.90
41168;DHT22;26906;45.658;9.272;2023-05-28T06:31:22;23.80;99.90
41168;DHT22;26906;45.658;9.272;2023-05-28T06:33:48;24.00;99.90
41168;DHT22;26906;45.658;9.272;2023-05-28T06:36:14;24.20;99.90
41168;DHT22;26906;45.658;9.272;2023-05-28T06:38:40;24.30;99.90
41168;DHT22;26906;45.658;9.272;2023-05-28T06:41:06;24.60;99.90
41168;DHT22;26906;45.658;9.272;2023-05-28T06:43:41;24.70;99.90
41168;DHT22;26906;45.658;9.272;2023-05-28T06:46:16;24.90;99.90
41168;DHT22;26906;45.658;9.272;2023-05-28T06:48:42;24.80;99.90
41168;DHT22;26906;45.658;9.272;2023-05-28T06:51:08;24.70;99.90
41168;DHT22;26906;45.658;9.272;2023-05-28T06:53:34;24.70;99.90
41168;DHT22;26906;45.658;9.272;2023-05-28T06:56:01;25.00;99.90
41168;DHT22;26906;45.658;9.272;2023-05-28T06:58:58;25.10;99.90
41168;DHT22;26906;45.658;9.272;2023-05-28T07:01:42;25.00;99.90
41168;DHT22;26906;45.658;9.272;2023-05-28T07:04:23;25.10;99.90
41168;DHT22;26906;45.658;9.272;2023-05-28T07:06:48;25.20;99.90
41168;DHT22;26906;45.658;9.272;2023-05-28T07:09:32;25.50;99.90
41168;DHT22;26906;45.658;9.272;2023-05-28T07:11:58;25.70;99.90
41168;DHT22;26906;45.658;9.272;2023-05-28T07:14:24;25.90;99.90
41168;DHT22;26906;45.658;9.272;2023-05-28T07:16:51;26.10;99.90
41168;DHT22;26906;45.658;9.272;2023-05-28T07:19:17;26.40;99.90
41168;DHT22;26906;45.658;9.272;2023-05-28T07:21:46;26.40;99.90
41168;DHT22;26906;45.658;9.272;2023-05-28T07:24:12;26.40;99.90
41168;DHT22;26906;45.658;9.272;2023-05-28T07:26:38;26.60;99.90
41168;DHT22;26906;45.658;9.272;2023-05-28T07:29:04;26.80;99.90
41168;DHT22;26906;45.658;9.272;2023-05-28T07:31:30;26.70;99.90
41168;DHT22;26906;45.658;9.272;2023-05-28T07:33:57;26.80;99.90
41168;DHT22;26906;45.658;9.272;2023-05-28T07:36:27;27.10;99.90
41168;DHT22;26906;45.658;9.272;2023-05-28T07:38:53;27.10;99.90
41168;DHT22;26906;45.658;9.272;2023-05-28T07:41:19;27.10;99.90
41168;DHT22;26906;45.658;9.272;2023-05-28T07:43:57;27.20;99.90
41168;DHT22;26906;45.658;9.272;2023-05-28T07:46:26;27.50;99.90
41168;DHT22;26906;45.658;9.272;2023-05-28T07:49:00;27.60;99.90
41168;DHT22;26906;45.658;9.272;2023-05-28T07:51:29;27.40;99.90
41168;DHT22;26906;45.658;9.272;2023-05-28T07:54:08;27.00;99.90
41168;DHT22;26906;45.658;9.272;2023-05-28T07:56:33;26.90;99.90
41168;DHT22;26906;45.658;9.272;2023-05-28T07:59:01;26.90;99.90
41168;DHT22;26906;45.658;9.272;2023-05-28T08:01:29;26.70;99.90
41168;DHT22;26906;45.658;9.272;2023-05-28T08:03:55;26.90;99.90
41168;DHT22;26906;45.658;9.272;2023-05-28T08:06:24;27.20;99.90
41168;DHT22;26906;45.658;9.272;2023-05-28T08:08:50;27.10;99.90
41168;DHT22;26906;45.658;9.272;2023-05-28T08:11:17;27.30;99.90
41168;DHT22;26906;45.658;9.272;2023-05-28T08:13:43;27.60;99.90
41168;DHT22;26906;45.658;9.272;2023-05-28T08:16:12;27.70;99.90
41168;DHT22;26906;45.658;9.272;2023-05-28T08:18:57;27.40;99.90
41168;DHT22;26906;45.658;9.272;2023-05-28T08:21:23;27.40;99.90
41168;DHT22;26906;45.658;9.272;2023-05-28T08:23:48;27.60;99.90
41168;DHT22;26906;45.658;9.272;2023-05-28T08:26:14;27.60;99.90
41168;DHT22;26906;45.658;9.272;2023-05-28T08:28:41;27.60;99.90
41168;DHT22;26906;45.658;9.272;2023-05-28T08:31:06;27.60;99.90
41168;DHT22;26906;45.658;9.272;2023-05-28T08:33:54;27.80;99.90
41168;DHT22;26906;45.658;9.272;2023-05-28T08:36:20;27.70;99.90
41168;DHT22;26906;45.658;9.272;2023-05-28T08:38:48;27.90;99.90
41168;DHT22;26906;45.658;9.272;2023-05-28T08:41:14;28.00;99.90
41168;DHT22;26906;45.658;9.272;2023-05-28T08:43:41;27.80;99.90
41168;DHT22;26906;45.658;9.272;2023-05-28T08:46:07;27.80;99.90
41168;DHT22;26906;45.658;9.272;2023-05-28T08:48:40;28.00;99.90
41168;DHT22;26906;45.658;9.272;2023-05-28T08:51:07;27.90;99.90
41168;DHT22;26906;45.658;9.272;2023-05-28T08:53:40;28.10;99.90
41168;DHT22;26906;45.658;9.272;2023-05-28T08:56:06;28.10;99.90
41168;DHT22;26906;45.658;9.272;2023-05-28T08:58:37;28.00;99.90
41168;DHT22;26906;45.658;9.272;2023-05-28T09:01:05;28.40;99.90
41168;DHT22;26906;45.658;9.272;2023-05-28T09:03:56;28.30;99.90
41168;DHT22;26906;45.658;9.272;2023-05-28T09:06:26;28.50;99.90
41168;DHT22;26906;45.658;9.272;2023-05-28T09:08:57;28.70;99.90
41168;DHT22;26906;45.658;9.272;2023-05-28T09:11:34;29.10;99.90
41168;DHT22;26906;45.658;9.272;2023-05-28T09:14:09;29.50;99.90
41168;DHT22;26906;45.658;9.272;2023-05-28T09:16:40;29.50;99.90
41168;DHT22;26906;45.658;9.272;2023-05-28T09:19:09;29.60;99.90
41168;DHT22;26906;45.658;9.272;2023-05-28T09:21:35;29.60;99.90
41168;DHT22;26906;45.658;9.272;2023-05-28T09:24:05;29.60;99.90
41168;DHT22;26906;45.658;9.272;2023-05-28T09:26:34;29.70;99.90
41168;DHT22;26906;45.658;9.272;2023-05-28T09:29:11;29.60;99.90
41168;DHT22;26906;45.658;9.272;2023-05-28T09:31:38;29.40;99.90
41168;DHT22;26906;45.658;9.272;2023-05-28T09:34:04;29.60;99.90
41168;DHT22;26906;45.658;9.272;2023-05-28T09:36:30;29.80;99.90
41168;DHT22;26906;45.658;9.272;2023-05-28T09:38:57;29.80;99.90
41168;DHT22;26906;45.658;9.272;2023-05-28T09:41:25;29.70;99.90
41168;DHT22;26906;45.658;9.272;2023-05-28T09:43:59;29.70;99.90
41168;DHT22;26906;45.658;9.272;2023-05-28T09:46:33;29.80;99.90
41168;DHT22;26906;45.658;9.272;2023-05-28T09:48:59;29.80;99.90
41168;DHT22;26906;45.658;9.272;2023-05-28T09:51:29;29.80;99.90
41168;DHT22;26906;45.658;9.272;2023-05-28T09:53:57;29.70;99.90
41168;DHT22;26906;45.658;9.272;2023-05-28T09:56:31;29.90;99.90
41168;DHT22;26906;45.658;9.272;2023-05-28T09:58:59;30.00;99.90
41168;DHT22;26906;45.658;9.272;2023-05-28T10:01:30;29.90;99.90
41168;DHT22;26906;45.658;9.272;2023-05-28T10:04:09;30.20;99.90
41168;DHT22;26906;45.658;9.272;2023-05-28T10:06:38;30.40;99.90
41168;DHT22;26906;45.658;9.272;2023-05-28T10:09:06;30.40;99.90
41168;DHT22;26906;45.658;9.272;2023-05-28T10:11:39;30.50;99.90
41168;DHT22;26906;45.658;9.272;2023-05-28T10:14:07;30.70;99.90
41168;DHT22;26906;45.658;9.272;2023-05-28T10:16:34;30.60;99.90
41168;DHT22;26906;45.658;9.272;2023-05-28T10:19:01;30.10;99.90
41168;DHT22;26906;45.658;9.272;2023-05-28T10:21:27;30.00;99.90
41168;DHT22;26906;45.658;9.272;2023-05-28T10:23:53;30.20;99.90
41168;DHT22;26906;45.658;9.272;2023-05-28T10:26:20;30.20;99.90
41168;DHT22;26906;45.658;9.272;2023-05-28T10:28:53;30.20;99.90
41168;DHT22;26906;45.658;9.272;2023-05-28T10:31:21;30.50;99.90
41168;DHT22;26906;45.658;9.272;2023-05-28T10:33:47;30.60;99.90
41168;DHT22;26906;45.658;9.272;2023-05-28T10:36:16;30.60;99.90
41168;DHT22;26906;45.658;9.272;2023-05-28T10:41:09;30.70;99.90
41168;DHT22;26906;45.658;9.272;2023-05-28T10:46:08;30.60;99.90
41168;DHT22;26906;45.658;9.272;2023-05-28T10:48:40;30.70;99.90
41168;DHT22;26906;45.658;9.272;2023-05-28T10:51:06;30.50;99.90
41168;DHT22;26906;45.658;9.272;2023-05-28T10:53:32;30.30;99.90
41168;DHT22;26906;45.658;9.272;2023-05-28T10:56:01;29.80;99.90
41168;DHT22;26906;45.658;9.272;2023-05-28T10:58:35;29.90;99.90
41168;DHT22;26906;45.658;9.272;2023-05-28T11:01:19;29.90;99.90
41168;DHT22;26906;45.658;9.272;2023-05-28T11:03:54;30.10;99.90
41168;DHT22;26906;45.658;9.272;2023-05-28T11:06:20;30.10;99.90
41168;DHT22;26906;45.658;9.272;2023-05-28T11:08:48;30.50;99.90
41168;DHT22;26906;45.658;9.272;2023-05-28T11:11:16;30.50;99.90
41168;DHT22;26906;45.658;9.272;2023-05-28T11:13:43;30.60;99.90
41168;DHT22;26906;45.658;9.272;2023-05-28T11:16:13;30.80;99.90
41168;DHT22;26906;45.658;9.272;2023-05-28T11:18:40;31.20;99.90
41168;DHT22;26906;45.658;9.272;2023-05-28T11:21:24;31.60;99.90
41168;DHT22;26906;45.658;9.272;2023-05-28T11:24:03;31.90;99.90
41168;DHT22;26906;45.658;9.272;2023-05-28T11:26:33;31.40;99.90
41168;DHT22;26906;45.658;9.272;2023-05-28T11:28:59;31.00;99.90
41168;DHT22;26906;45.658;9.272;2023-05-28T11:31:26;30.90;99.90
41168;DHT22;26906;45.658;9.272;2023-05-28T11:33:52;30.70;99.90
41168;DHT22;26906;45.658;9.272;2023-05-28T11:36:18;30.80;99.90
41168;DHT22;26906;45.658;9.272;2023-05-28T11:38:46;30.90;99.90
41168;DHT22;26906;45.658;9.272;2023-05-28T11:41:12;31.30;99.90
41168;DHT22;26906;45.658;9.272;2023-05-28T11:43:37;31.70;99.90
41168;DHT22;26906;45.658;9.272;2023-05-28T11:46:05;31.70;99.90
41168;DHT22;26906;45.658;9.272;2023-05-28T11:48:36;31.90;99.90
41168;DHT22;26906;45.658;9.272;2023-05-28T11:51:02;31.60;99.90
41168;DHT22;26906;45.658;9.272;2023-05-28T11:53:41;31.60;99.90
41168;DHT22;26906;45.658;9.272;2023-05-28T11:56:08;31.40;99.90
41168;DHT22;26906;45.658;9.272;2023-05-28T11:58:34;31.40;99.90
41168;DHT22;26906;45.658;9.272;2023-05-28T12:01:03;31.50;99.90
41168;DHT22;26906;45.658;9.272;2023-05-28T12:03:29;31.60;99.90
41168;DHT22;26906;45.658;9.272;2023-05-28T12:05:55;31.80;99.90
41168;DHT22;26906;45.658;9.272;2023-05-28T12:08:21;31.70;99.90
41168;DHT22;26906;45.658;9.272;2023-05-28T12:10:46;31.40;99.90
41168;DHT22;26906;45.658;9.272;2023-05-28T12:13:12;31.10;99.90
41168;DHT22;26906;45.658;9.272;2023-05-28T12:15:38;30.80;99.90
41168;DHT22;26906;45.658;9.272;2023-05-28T12:18:04;30.40;99.90
41168;DHT22;26906;45.658;9.272;2023-05-28T12:20:40;30.40;99.90
41168;DHT22;26906;45.658;9.272;2023-05-28T12:23:08;30.40;99.90
41168;DHT22;26906;45.658;9.272;2023-05-28T12:28:09;31.20;99.90
41168;DHT22;26906;45.658;9.272;2023-05-28T12:30:37;31.80;99.90
41168;DHT22;26906;45.658;9.272;2023-05-28T12:33:02;32.00;99.90
41168;DHT22;26906;45.658;9.272;2023-05-28T12:35:28;31.60;99.90
41168;DHT22;26906;45.658;9.272;2023-05-28T12:37:54;31.40;99.90
41168;DHT22;26906;45.658;9.272;2023-05-28T12:40:19;31.70;99.90
41168;DHT22;26906;45.658;9.272;2023-05-28T12:42:46;31.80;99.90
41168;DHT22;26906;45.658;9.272;2023-05-28T12:45:12;31.70;99.90
41168;DHT22;26906;45.658;9.272;2023-05-28T12:47:37;31.20;99.90
41168;DHT22;26906;45.658;9.272;2023-05-28T12:50:03;30.80;99.90
41168;DHT22;26906;45.658;9.272;2023-05-28T12:52:29;30.60;99.90
41168;DHT22;26906;45.658;9.272;2023-05-28T12:54:57;30.50;99.90
41168;DHT22;26906;45.658;9.272;2023-05-28T12:57:25;30.30;99.90
41168;DHT22;26906;45.658;9.272;2023-05-28T12:59:50;30.30;99.90
41168;DHT22;26906;45.658;9.272;2023-05-28T13:02:16;30.10;99.90
41168;DHT22;26906;45.658;9.272;2023-05-28T13:04:42;30.30;99.90
41168;DHT22;26906;45.658;9.272;2023-05-28T13:07:07;30.10;99.90
41168;DHT22;26906;45.658;9.272;2023-05-28T13:09:33;30.10;99.90
41168;DHT22;26906;45.658;9.272;2023-05-28T13:11:59;30.60;99.90
41168;DHT22;26906;45.658;9.272;2023-05-28T13:14:26;30.80;99.90
41168;DHT22;26906;45.658;9.272;2023-05-28T13:16:52;30.50;99.90
41168;DHT22;26906;45.658;9.272;2023-05-28T13:19:21;30.40;99.90
41168;DHT22;26906;45.658;9.272;2023-05-28T13:21:46;30.60;99.90
41168;DHT22;26906;45.658;9.272;2023-05-28T13:24:12;30.90;99.90
41168;DHT22;26906;45.658;9.272;2023-05-28T13:26:38;31.10;99.90
41168;DHT22;26906;45.658;9.272;2023-05-28T13:29:04;31.50;99.90
41168;DHT22;26906;45.658;9.272;2023-05-28T13:31:31;31.60;99.90
41168;DHT22;26906;45.658;9.272;2023-05-28T13:33:56;31.70;99.90
41168;DHT22;26906;45.658;9.272;2023-05-28T13:36:23;31.80;99.90
41168;DHT22;26906;45.658;9.272;2023-05-28T13:38:49;31.80;99.90
41168;DHT22;26906;45.658;9.272;2023-05-28T13:41:16;31.90;99.90
41168;DHT22;26906;45.658;9.272;2023-05-28T13:43:43;31.90;99.90
41168;DHT22;26906;45.658;9.272;2023-05-28T13:46:09;32.30;99.90
41168;DHT22;26906;45.658;9.272;2023-05-28T13:48:35;32.30;99.90
41168;DHT22;26906;45.658;9.272;2023-05-28T13:51:01;31.90;99.90
41168;DHT22;26906;45.658;9.272;2023-05-28T13:53:28;31.90;99.90
41168;DHT22;26906;45.658;9.272;2023-05-28T13:55:57;31.60;99.90
41168;DHT22;26906;45.658;9.272;2023-05-28T13:58:24;32.00;99.90
41168;DHT22;26906;45.658;9.272;2023-05-28T14:00:49;32.20;99.10
41168;DHT22;26906;45.658;9.272;2023-05-28T14:03:15;31.70;99.10
41168;DHT22;26906;45.658;9.272;2023-05-28T14:05:43;31.30;99.40
41168;DHT22;26906;45.658;9.272;2023-05-28T14:08:09;31.10;99.90
41168;DHT22;26906;45.658;9.272;2023-05-28T14:10:35;30.80;99.90
41168;DHT22;26906;45.658;9.272;2023-05-28T14:13:01;30.70;99.90
41168;DHT22;26906;45.658;9.272;2023-05-28T14:15:27;30.60;99.90
41168;DHT22;26906;45.658;9.272;2023-05-28T14:17:53;30.40;99.90
41168;DHT22;26906;45.658;9.272;2023-05-28T14:20:19;30.40;99.90
41168;DHT22;26906;45.658;9.272;2023-05-28T14:22:45;30.70;99.90
41168;DHT22;26906;45.658;9.272;2023-05-28T14:25:11;31.20;99.90
41168;DHT22;26906;45.658;9.272;2023-05-28T14:27:37;31.50;99.90
41168;DHT22;26906;45.658;9.272;2023-05-28T14:30:04;31.40;99.90
41168;DHT22;26906;45.658;9.272;2023-05-28T14:32:30;31.00;99.90
41168;DHT22;26906;45.658;9.272;2023-05-28T14:34:57;30.70;99.90
41168;DHT22;26906;45.658;9.272;2023-05-28T14:37:23;30.30;99.90
41168;DHT22;26906;45.658;9.272;2023-05-28T14:39:49;30.30;99.90
41168;DHT22;26906;45.658;9.272;2023-05-28T14:42:14;30.30;99.90
41168;DHT22;26906;45.658;9.272;2023-05-28T14:44:40;30.30;99.90
41168;DHT22;26906;45.658;9.272;2023-05-28T14:47:06;30.10;99.90
41168;DHT22;26906;45.658;9.272;2023-05-28T14:49:31;30.00;99.90
41168;DHT22;26906;45.658;9.272;2023-05-28T14:51:57;29.90;99.90
41168;DHT22;26906;45.658;9.272;2023-05-28T14:54:23;29.80;99.90
41168;DHT22;26906;45.658;9.272;2023-05-28T14:56:49;29.70;99.90
41168;DHT22;26906;45.658;9.272;2023-05-28T14:59:14;29.80;99.90
41168;DHT22;26906;45.658;9.272;2023-05-28T15:01:40;29.80;99.90
41168;DHT22;26906;45.658;9.272;2023-05-28T15:04:06;29.40;99.90
41168;DHT22;26906;45.658;9.272;2023-05-28T15:06:32;29.00;99.90
41168;DHT22;26906;45.658;9.272;2023-05-28T15:08:58;28.60;99.90
41168;DHT22;26906;45.658;9.272;2023-05-28T15:11:24;27.90;99.90
41168;DHT22;26906;45.658;9.272;2023-05-28T15:13:51;27.30;99.90
41168;DHT22;26906;45.658;9.272;2023-05-28T15:16:17;26.90;99.90
41168;DHT22;26906;45.658;9.272;2023-05-28T15:18:43;26.50;99.90
41168;DHT22;26906;45.658;9.272;2023-05-28T15:21:09;26.20;99.90
41168;DHT22;26906;45.658;9.272;2023-05-28T15:23:35;26.10;99.90
41168;DHT22;26906;45.658;9.272;2023-05-28T15:26:01;25.80;99.90
41168;DHT22;26906;45.658;9.272;2023-05-28T15:28:27;25.70;99.90
41168;DHT22;26906;45.658;9.272;2023-05-28T15:30:53;25.30;99.90
41168;DHT22;26906;45.658;9.272;2023-05-28T15:33:20;25.20;99.90
41168;DHT22;26906;45.658;9.272;2023-05-28T15:35:46;25.10;99.90
41168;DHT22;26906;45.658;9.272;2023-05-28T15:38:13;25.20;99.90
41168;DHT22;26906;45.658;9.272;2023-05-28T15:40:40;24.90;99.90
41168;DHT22;26906;45.658;9.272;2023-05-28T15:43:06;24.60;99.90
41168;DHT22;26906;45.658;9.272;2023-05-28T15:45:32;24.50;99.90
41168;DHT22;26906;45.658;9.272;2023-05-28T15:48:01;24.50;99.90
41168;DHT22;26906;45.658;9.272;2023-05-28T15:50:27;24.50;99.90
41168;DHT22;26906;45.658;9.272;2023-05-28T15:52:52;24.20;99.90
41168;DHT22;26906;45.658;9.272;2023-05-28T15:55:18;23.70;99.90
41168;DHT22;26906;45.658;9.272;2023-05-28T15:57:44;23.40;99.90
41168;DHT22;26906;45.658;9.272;2023-05-28T16:00:10;23.10;99.90
41168;DHT22;26906;45.658;9.272;2023-05-28T16:02:41;22.60;99.90
41168;DHT22;26906;45.658;9.272;2023-05-28T16:05:07;22.20;99.90
41168;DHT22;26906;45.658;9.272;2023-05-28T16:07:33;22.00;99.90
41168;DHT22;26906;45.658;9.272;2023-05-28T16:10:00;21.80;99.90
41168;DHT22;26906;45.658;9.272;2023-05-28T16:12:27;21.60;99.90
41168;DHT22;26906;45.658;9.272;2023-05-28T16:14:54;21.70;99.90
41168;DHT22;26906;45.658;9.272;2023-05-28T16:17:21;21.80;99.90
41168;DHT22;26906;45.658;9.272;2023-05-28T16:19:47;21.70;99.90
41168;DHT22;26906;45.658;9.272;2023-05-28T16:22:13;21.50;99.90
41168;DHT22;26906;45.658;9.272;2023-05-28T16:24:39;21.50;99.90
41168;DHT22;26906;45.658;9.272;2023-05-28T16:27:05;21.50;99.90
41168;DHT22;26906;45.658;9.272;2023-05-28T16:29:32;21.40;99.90
41168;DHT22;26906;45.658;9.272;2023-05-28T16:31:58;21.30;99.90
41168;DHT22;26906;45.658;9.272;2023-05-28T16:34:24;21.30;99.90
41168;DHT22;26906;45.658;9.272;2023-05-28T16:36:50;21.20;99.90
41168;DHT22;26906;45.658;9.272;2023-05-28T16:39:18;21.30;99.90
41168;DHT22;26906;45.658;9.272;2023-05-28T16:41:44;21.30;99.90
41168;DHT22;26906;45.658;9.272;2023-05-28T16:44:10;21.20;99.90
41168;DHT22;26906;45.658;9.272;2023-05-28T16:46:36;21.20;99.90
41168;DHT22;26906;45.658;9.272;2023-05-28T16:49:02;21.30;99.90
41168;DHT22;26906;45.658;9.272;2023-05-28T16:51:29;21.40;99.90
41168;DHT22;26906;45.658;9.272;2023-05-28T16:53:55;21.70;99.90
41168;DHT22;26906;45.658;9.272;2023-05-28T16:56:24;21.90;99.90
41168;DHT22;26906;45.658;9.272;2023-05-28T16:58:50;22.20;99.90
41168;DHT22;26906;45.658;9.272;2023-05-28T17:01:16;22.40;99.90
41168;DHT22;26906;45.658;9.272;2023-05-28T17:03:44;22.50;99.90
41168;DHT22;26906;45.658;9.272;2023-05-28T17:06:09;22.60;99.90
41168;DHT22;26906;45.658;9.272;2023-05-28T17:08:35;22.50;99.90
41168;DHT22;26906;45.658;9.272;2023-05-28T17:11:01;22.20;99.90
41168;DHT22;26906;45.658;9.272;2023-05-28T17:13:27;22.20;99.90
41168;DHT22;26906;45.658;9.272;2023-05-28T17:15:53;22.20;99.90
41168;DHT22;26906;45.658;9.272;2023-05-28T17:18:19;22.20;99.90
41168;DHT22;26906;45.658;9.272;2023-05-28T17:20:44;22.20;99.90
41168;DHT22;26906;45.658;9.272;2023-05-28T17:23:10;22.20;99.90
41168;DHT22;26906;45.658;9.272;2023-05-28T17:25:36;22.10;99.90
41168;DHT22;26906;45.658;9.272;2023-05-28T17:28:01;22.10;99.90
41168;DHT22;26906;45.658;9.272;2023-05-28T17:30:27;22.10;99.90
41168;DHT22;26906;45.658;9.272;2023-05-28T17:32:53;21.80;99.90
41168;DHT22;26906;45.658;9.272;2023-05-28T17:35:18;21.90;99.90
41168;DHT22;26906;45.658;9.272;2023-05-28T17:37:44;21.90;99.90
41168;DHT22;26906;45.658;9.272;2023-05-28T17:40:10;22.10;99.90
41168;DHT22;26906;45.658;9.272;2023-05-28T17:42:36;22.20;99.90
41168;DHT22;26906;45.658;9.272;2023-05-28T17:45:02;22.40;99.90
41168;DHT22;26906;45.658;9.272;2023-05-28T17:47:28;22.50;99.90
41168;DHT22;26906;45.658;9.272;2023-05-28T17:49:53;22.50;99.90
41168;DHT22;26906;45.658;9.272;2023-05-28T17:52:19;22.60;99.90
41168;DHT22;26906;45.658;9.272;2023-05-28T17:54:45;22.40;99.90
41168;DHT22;26906;45.658;9.272;2023-05-28T17:57:11;22.50;99.90
41168;DHT22;26906;45.658;9.272;2023-05-28T17:59:36;22.50;99.90
41168;DHT22;26906;45.658;9.272;2023-05-28T18:02:02;22.70;99.90
41168;DHT22;26906;45.658;9.272;2023-05-28T18:04:28;22.70;99.90
41168;DHT22;26906;45.658;9.272;2023-05-28T18:06:54;22.80;99.90
41168;DHT22;26906;45.658;9.272;2023-05-28T18:09:20;22.80;99.90
41168;DHT22;26906;45.658;9.272;2023-05-28T18:11:46;22.70;99.90
41168;DHT22;26906;45.658;9.272;2023-05-28T18:14:11;22.50;99.90
41168;DHT22;26906;45.658;9.272;2023-05-28T18:16:37;22.50;99.90
41168;DHT22;26906;45.658;9.272;2023-05-28T18:19:03;22.50;99.90
41168;DHT22;26906;45.658;9.272;2023-05-28T18:21:28;22.50;99.90
41168;DHT22;26906;45.658;9.272;2023-05-28T18:24:08;22.50;99.90
41168;DHT22;26906;45.658;9.272;2023-05-28T18:26:35;22.50;99.90
41168;DHT22;26906;45.658;9.272;2023-05-28T18:29:00;22.40;99.90
41168;DHT22;26906;45.658;9.272;2023-05-28T18:31:26;22.40;99.90
41168;DHT22;26906;45.658;9.272;2023-05-28T18:33:52;22.40;99.90
41168;DHT22;26906;45.658;9.272;2023-05-28T18:36:18;22.50;99.90
41168;DHT22;26906;45.658;9.272;2023-05-28T18:38:43;22.50;99.90
41168;DHT22;26906;45.658;9.272;2023-05-28T18:41:09;22.40;99.90
41168;DHT22;26906;45.658;9.272;2023-05-28T18:43:34;22.30;99.90
41168;DHT22;26906;45.658;9.272;2023-05-28T18:46:00;22.40;99.90
41168;DHT22;26906;45.658;9.272;2023-05-28T18:48:26;22.50;99.90
41168;DHT22;26906;45.658;9.272;2023-05-28T18:50:52;22.50;99.90
41168;DHT22;26906;45.658;9.272;2023-05-28T18:53:18;22.50;99.90
41168;DHT22;26906;45.658;9.272;2023-05-28T18:55:44;22.50;99.90
41168;DHT22;26906;45.658;9.272;2023-05-28T18:58:09;22.50;99.90
41168;DHT22;26906;45.658;9.272;2023-05-28T19:00:35;22.60;99.90
41168;DHT22;26906;45.658;9.272;2023-05-28T19:03:01;22.50;99.90
41168;DHT22;26906;45.658;9.272;2023-05-28T19:05:27;22.50;99.90
41168;DHT22;26906;45.658;9.272;2023-05-28T19:07:52;22.30;99.90
41168;DHT22;26906;45.658;9.272;2023-05-28T19:10:18;22.20;99.90
41168;DHT22;26906;45.658;9.272;2023-05-28T19:12:43;22.00;99.90
41168;DHT22;26906;45.658;9.272;2023-05-28T19:15:10;21.90;99.90
41168;DHT22;26906;45.658;9.272;2023-05-28T19:17:38;21.80;99.90
41168;DHT22;26906;45.658;9.272;2023-05-28T19:20:04;21.80;99.90
41168;DHT22;26906;45.658;9.272;2023-05-28T19:22:31;21.80;99.90
41168;DHT22;26906;45.658;9.272;2023-05-28T19:24:57;21.80;99.90
41168;DHT22;26906;45.658;9.272;2023-05-28T19:27:24;21.80;99.90
41168;DHT22;26906;45.658;9.272;2023-05-28T19:29:50;21.80;99.90
41168;DHT22;26906;45.658;9.272;2023-05-28T19:32:15;21.70;99.90
41168;DHT22;26906;45.658;9.272;2023-05-28T19:34:41;21.80;99.90
41168;DHT22;26906;45.658;9.272;2023-05-28T19:37:07;21.90;99.90
41168;DHT22;26906;45.658;9.272;2023-05-28T19:39:35;22.10;99.90
41168;DHT22;26906;45.658;9.272;2023-05-28T19:42:01;22.10;99.90
41168;DHT22;26906;45.658;9.272;2023-05-28T19:44:26;22.20;99.90
41168;DHT22;26906;45.658;9.272;2023-05-28T19:46:54;22.30;99.90
41168;DHT22;26906;45.658;9.272;2023-05-28T19:49:19;22.30;99.90
41168;DHT22;26906;45.658;9.272;2023-05-28T19:51:45;22.30;99.90
41168;DHT22;26906;45.658;9.272;2023-05-28T19:54:11;22.40;99.90
41168;DHT22;26906;45.658;9.272;2023-05-28T19:56:38;22.40;99.90
41168;DHT22;26906;45.658;9.272;2023-05-28T19:59:03;22.40;99.90
41168;DHT22;26906;45.658;9.272;2023-05-28T20:01:30;22.40;99.90
41168;DHT22;26906;45.658;9.272;2023-05-28T20:03:55;22.30;99.90
41168;DHT22;26906;45.658;9.272;2023-05-28T20:06:21;22.30;99.90
41168;DHT22;26906;45.658;9.272;2023-05-28T20:08:48;22.30;99.90
41168;DHT22;26906;45.658;9.272;2023-05-28T20:11:14;22.20;99.90
41168;DHT22;26906;45.658;9.272;2023-05-28T20:13:40;22.20;99.90
41168;DHT22;26906;45.658;9.272;2023-05-28T20:16:06;22.00;99.90
41168;DHT22;26906;45.658;9.272;2023-05-28T20:18:32;21.90;99.90
41168;DHT22;26906;45.658;9.272;2023-05-28T20:21:00;21.80;99.90
41168;DHT22;26906;45.658;9.272;2023-05-28T20:23:32;21.90;99.90
41168;DHT22;26906;45.658;9.272;2023-05-28T20:26:00;21.80;99.90
41168;DHT22;26906;45.658;9.272;2023-05-28T20:28:26;21.70;99.90
41168;DHT22;26906;45.658;9.272;2023-05-28T20:30:51;21.80;99.90
41168;DHT22;26906;45.658;9.272;2023-05-28T20:33:17;21.90;99.90
41168;DHT22;26906;45.658;9.272;2023-05-28T20:35:43;22.00;99.90
41168;DHT22;26906;45.658;9.272;2023-05-28T20:38:08;22.00;99.90
41168;DHT22;26906;45.658;9.272;2023-05-28T20:40:34;21.80;99.90
41168;DHT22;26906;45.658;9.272;2023-05-28T20:43:00;21.80;99.90
41168;DHT22;26906;45.658;9.272;2023-05-28T20:45:29;21.70;99.90
41168;DHT22;26906;45.658;9.272;2023-05-28T20:47:55;21.60;99.90
